createdAt,value
2022-08-14T00:00:16.755Z,22.42
2022-08-14T00:02:46.520Z,22.40
2022-08-14T00:05:20.603Z,22.39
2022-08-14T00:07:51.455Z,22.37
2022-08-14T00:10:49.660Z,22.37
2022-08-14T00:13:13.557Z,22.35
2022-08-14T00:15:44.710Z,22.35
2022-08-14T00:18:30.905Z,22.32
2022-08-14T00:21:11.298Z,22.29
2022-08-14T00:23:41.427Z,22.30
2022-08-14T00:26:21.397Z,22.29
2022-08-14T00:28:53.080Z,22.29
2022-08-14T00:31:44.211Z,22.28
2022-08-14T00:34:35.381Z,22.25
2022-08-14T00:36:59.735Z,22.22
2022-08-14T00:39:30.403Z,22.20
2022-08-14T00:41:59.292Z,22.19
2022-08-14T00:44:33.043Z,22.19
2022-08-14T00:47:03.629Z,22.17
2022-08-14T00:49:38.041Z,22.15
2022-08-14T00:52:17.713Z,22.13
2022-08-14T00:54:58.083Z,22.12
2022-08-14T00:57:30.357Z,22.12
2022-08-14T01:00:00.595Z,22.11
2022-08-14T01:02:31.913Z,22.11
2022-08-14T01:05:23.783Z,22.10
2022-08-14T01:07:57.868Z,22.09
2022-08-14T01:10:48.900Z,22.09
2022-08-14T01:13:22.247Z,22.07
2022-08-14T01:15:58.410Z,22.05
2022-08-14T01:19:01.051Z,22.04
2022-08-14T01:21:31.762Z,22.02
2022-08-14T01:24:05.741Z,22.00
2022-08-14T01:26:39.006Z,21.98
2022-08-14T01:29:10.937Z,21.95
2022-08-14T01:31:50.308Z,21.93
2022-08-14T01:35:20.411Z,21.89
2022-08-14T01:37:16.370Z,21.86
2022-08-14T01:39:45.654Z,21.83
2022-08-14T01:42:31.524Z,21.83
2022-08-14T01:45:05.685Z,21.83
2022-08-14T01:47:37.210Z,21.82
2022-08-14T01:50:08.006Z,21.81
2022-08-14T01:52:58.803Z,21.81
2022-08-14T01:55:31.836Z,21.80
2022-08-14T01:58:19.370Z,21.78
2022-08-14T02:00:55.710Z,21.77
2022-08-14T02:03:30.005Z,21.76
2022-08-14T02:06:04.011Z,21.75
2022-08-14T02:08:53.292Z,21.72
2022-08-14T02:11:25.014Z,21.70
2022-08-14T02:14:09.115Z,21.68
2022-08-14T02:16:45.802Z,21.67
2022-08-14T02:19:17.573Z,21.67
2022-08-14T02:21:50.459Z,21.66
2022-08-14T02:24:40.261Z,21.65
2022-08-14T02:28:26.019Z,21.63
2022-08-14T02:30:01.984Z,21.62
2022-08-14T02:32:36.410Z,21.62
2022-08-14T02:35:15.737Z,21.60
2022-08-14T02:37:48.279Z,21.60
2022-08-14T02:40:19.251Z,21.58
2022-08-14T02:42:55.243Z,21.56
2022-08-14T02:45:33.447Z,21.53
2022-08-14T02:48:10.544Z,21.51
2022-08-14T02:50:56.061Z,21.50
2022-08-14T02:53:24.925Z,21.48
2022-08-14T02:55:54.422Z,21.47
2022-08-14T02:58:30.948Z,21.48
2022-08-14T03:01:02.066Z,21.47
2022-08-14T03:03:31.690Z,21.47
2022-08-14T03:06:00.602Z,21.45
2022-08-14T03:08:32.296Z,21.45
2022-08-14T03:11:07.629Z,21.45
2022-08-14T03:13:39.611Z,21.42
2022-08-14T03:16:26.705Z,21.41
2022-08-14T03:18:59.846Z,21.38
2022-08-14T03:21:31.487Z,21.33
2022-08-14T03:24:21.406Z,21.29
2022-08-14T03:26:57.357Z,21.23
2022-08-14T03:29:27.660Z,21.20
2022-08-14T03:31:59.495Z,21.15
2022-08-14T03:34:47.803Z,21.11
2022-08-14T03:37:51.281Z,21.04
2022-08-14T03:40:06.719Z,20.99
2022-08-14T03:42:39.789Z,20.94
2022-08-14T03:45:26.540Z,20.88
2022-08-14T03:47:58.775Z,20.81
2022-08-14T03:50:32.618Z,20.77
2022-08-14T03:53:02.635Z,20.72
2022-08-14T03:55:31.480Z,20.69
2022-08-14T03:58:00.969Z,20.65
2022-08-14T04:00:43.133Z,20.61
2022-08-14T04:03:18.210Z,20.56
2022-08-14T04:05:53.122Z,20.54
2022-08-14T04:08:30.103Z,20.51
2022-08-14T04:11:01.647Z,20.50
2022-08-14T04:13:33.911Z,20.51
2022-08-14T04:16:12.662Z,20.52
2022-08-14T04:18:45.059Z,20.51
2022-08-14T04:21:16.133Z,20.50
2022-08-14T04:23:49.227Z,20.50
2022-08-14T04:26:42.155Z,20.49
2022-08-14T04:29:16.498Z,20.48
2022-08-14T04:33:02.434Z,20.48
2022-08-14T04:34:42.038Z,20.47
2022-08-14T04:37:29.127Z,20.43
2022-08-14T04:40:16.136Z,20.43
2022-08-14T04:43:03.000Z,20.43
2022-08-14T04:45:40.545Z,20.43
2022-08-14T04:48:39.292Z,20.41
2022-08-14T04:51:06.340Z,20.42
2022-08-14T04:53:41.077Z,20.46
2022-08-14T04:56:30.863Z,20.58
2022-08-14T04:59:10.630Z,20.72
2022-08-14T05:01:47.783Z,20.76
2022-08-14T05:04:19.962Z,20.80
2022-08-14T05:06:54.980Z,20.85
2022-08-14T05:09:24.611Z,20.97
2022-08-14T05:12:58.586Z,21.08
2022-08-14T05:14:53.477Z,21.30
2022-08-14T05:17:34.799Z,21.65
2022-08-14T05:21:04.028Z,22.43
2022-08-14T05:23:02.423Z,23.21
2022-08-14T05:25:33.703Z,23.54
2022-08-14T05:28:16.572Z,23.59
2022-08-14T05:30:47.846Z,23.54
2022-08-14T05:33:18.613Z,23.43
2022-08-14T05:35:48.943Z,23.35
2022-08-14T05:38:31.140Z,23.25
2022-08-14T05:41:02.776Z,23.14
2022-08-14T05:43:41.169Z,23.11
2022-08-14T05:46:15.307Z,23.08
2022-08-14T05:48:53.316Z,23.14
2022-08-14T05:51:23.719Z,23.23
2022-08-14T05:54:00.377Z,23.24
2022-08-14T05:56:38.764Z,23.27
2022-08-14T05:59:07.607Z,23.31
2022-08-14T06:01:36.103Z,23.32
2022-08-14T06:04:05.290Z,23.39
2022-08-14T06:06:38.044Z,23.51
2022-08-14T06:09:09.829Z,23.64
2022-08-14T06:11:38.680Z,23.65
2022-08-14T06:14:12.417Z,23.57
2022-08-14T06:16:49.304Z,23.49
2022-08-14T06:19:23.122Z,23.44
2022-08-14T06:21:58.151Z,23.42
2022-08-14T06:24:30.634Z,23.44
2022-08-14T06:27:06.434Z,23.44
2022-08-14T06:29:39.257Z,23.49
2022-08-14T06:32:52.506Z,23.49
2022-08-14T06:35:02.971Z,23.55
2022-08-14T06:37:47.700Z,23.65
2022-08-14T06:40:27.202Z,23.78
2022-08-14T06:43:03.509Z,23.94
2022-08-14T06:45:34.075Z,24.08
2022-08-14T06:48:06.358Z,24.23
2022-08-14T06:50:41.267Z,24.32
2022-08-14T06:53:14.742Z,24.39
2022-08-14T06:55:58.149Z,24.45
2022-08-14T06:58:31.286Z,24.50
2022-08-14T07:01:27.180Z,24.49
2022-08-14T07:04:23.952Z,24.54
2022-08-14T07:06:55.724Z,24.60
2022-08-14T07:09:43.935Z,24.65
2022-08-14T07:12:52.296Z,24.70
2022-08-14T07:15:07.278Z,24.74
2022-08-14T07:17:44.722Z,24.78
2022-08-14T07:20:14.023Z,24.83
2022-08-14T07:22:56.931Z,24.83
2022-08-14T07:25:32.549Z,24.79
2022-08-14T07:28:20.911Z,24.80
2022-08-14T07:31:05.232Z,24.82
2022-08-14T07:33:37.807Z,24.87
2022-08-14T07:36:27.480Z,24.93
2022-08-14T07:39:00.685Z,25.01
2022-08-14T07:41:33.746Z,25.09
2022-08-14T07:44:32.554Z,25.18
2022-08-14T07:46:51.923Z,25.29
2022-08-14T07:49:24.207Z,25.28
2022-08-14T07:51:52.957Z,25.32
2022-08-14T07:54:23.669Z,25.37
2022-08-14T07:57:00.901Z,25.46
2022-08-14T07:59:42.690Z,25.51
2022-08-14T08:02:18.087Z,25.60
2022-08-14T08:04:54.033Z,25.63
2022-08-14T08:07:29.807Z,25.71
2022-08-14T08:10:40.663Z,25.78
2022-08-14T08:13:17.022Z,25.79
2022-08-14T08:15:47.585Z,25.77
2022-08-14T08:18:20.539Z,25.78
2022-08-14T08:20:59.465Z,25.80
2022-08-14T08:23:40.032Z,25.83
2022-08-14T08:26:09.506Z,25.86
2022-08-14T08:28:38.021Z,25.89
2022-08-14T08:31:12.687Z,25.94
2022-08-14T08:33:42.600Z,25.96
2022-08-14T08:36:18.565Z,25.97
2022-08-14T08:39:17.446Z,26.04
2022-08-14T08:41:40.661Z,26.15
2022-08-14T08:44:17.017Z,26.24
2022-08-14T08:47:05.950Z,26.32
2022-08-14T08:49:53.055Z,26.36
2022-08-14T08:52:31.677Z,26.40
2022-08-14T08:55:04.332Z,26.37
2022-08-14T08:57:39.359Z,26.38
2022-08-14T09:00:25.650Z,26.45
2022-08-14T09:03:00.006Z,26.53
2022-08-14T09:05:28.896Z,26.58
2022-08-14T09:08:26.408Z,26.63
2022-08-14T09:11:19.947Z,26.75
2022-08-14T09:13:54.177Z,26.81
2022-08-14T09:16:25.756Z,26.86
2022-08-14T09:18:55.222Z,26.84
2022-08-14T09:21:24.917Z,26.85
2022-08-14T09:24:28.588Z,26.89
2022-08-14T09:26:50.028Z,27.02
2022-08-14T09:29:23.020Z,27.10
2022-08-14T09:31:59.492Z,27.17
2022-08-14T09:34:28.109Z,27.23
2022-08-14T09:36:59.804Z,27.22
2022-08-14T09:39:38.709Z,27.17
2022-08-14T09:42:50.105Z,27.17
2022-08-14T09:45:25.302Z,27.20
2022-08-14T09:47:59.061Z,27.26
2022-08-14T09:50:31.354Z,27.31
2022-08-14T09:53:04.374Z,27.37
2022-08-14T09:55:42.702Z,27.41
2022-08-14T09:58:20.013Z,27.53
2022-08-14T10:01:00.885Z,27.66
2022-08-14T10:03:34.774Z,27.65
2022-08-14T10:06:12.186Z,27.63
2022-08-14T10:09:06.575Z,27.73
2022-08-14T10:11:43.597Z,27.85
2022-08-14T10:14:29.501Z,27.97
2022-08-14T10:17:06.970Z,28.10
2022-08-14T10:19:48.752Z,28.15
2022-08-14T10:23:13.282Z,28.17
2022-08-14T10:25:17.756Z,28.13
2022-08-14T10:27:57.121Z,28.21
2022-08-14T10:30:37.088Z,28.23
2022-08-14T10:33:07.140Z,28.18
2022-08-14T10:35:48.116Z,28.05
2022-08-14T10:38:36.788Z,27.88
2022-08-14T10:41:13.552Z,27.86
2022-08-14T10:43:45.114Z,27.89
2022-08-14T10:47:37.103Z,27.88
2022-08-14T10:49:18.867Z,27.89
2022-08-14T10:52:10.689Z,27.93
2022-08-14T10:54:44.785Z,27.85
2022-08-14T10:57:26.283Z,27.94
2022-08-14T11:00:00.395Z,28.02
2022-08-14T11:02:44.835Z,27.96
2022-08-14T11:05:19.721Z,27.93
2022-08-14T11:07:51.141Z,27.92
2022-08-14T11:10:54.266Z,27.99
2022-08-14T11:13:30.032Z,28.05
2022-08-14T11:16:01.610Z,28.11
2022-08-14T11:18:35.934Z,28.10
2022-08-14T11:21:11.555Z,28.17
2022-08-14T11:23:41.043Z,28.17
2022-08-14T11:26:16.730Z,28.25
2022-08-14T11:28:49.690Z,28.33
2022-08-14T11:31:23.448Z,28.22
2022-08-14T11:33:57.866Z,28.19
2022-08-14T11:37:02.059Z,28.25
2022-08-14T11:39:34.508Z,28.27
2022-08-14T11:42:56.510Z,28.33
2022-08-14T11:45:00.865Z,28.32
2022-08-14T11:47:35.636Z,28.39
2022-08-14T11:50:33.879Z,28.39
2022-08-14T11:53:08.584Z,28.27
2022-08-14T11:55:39.331Z,28.10
2022-08-14T11:58:11.038Z,28.05
2022-08-14T12:00:47.751Z,28.05
2022-08-14T12:03:27.158Z,28.03
2022-08-14T12:06:29.185Z,27.96
2022-08-14T12:09:03.398Z,27.97
2022-08-14T12:11:44.235Z,27.90
2022-08-14T12:14:34.617Z,27.94
2022-08-14T12:17:12.127Z,28.18
2022-08-14T12:19:53.735Z,28.25
2022-08-14T12:22:35.285Z,28.34
2022-08-14T12:25:11.040Z,28.49
2022-08-14T12:27:54.017Z,28.64
2022-08-14T12:30:47.374Z,28.68
2022-08-14T12:33:30.981Z,28.69
2022-08-14T12:36:04.462Z,28.58
2022-08-14T12:38:43.757Z,28.66
2022-08-14T12:41:21.928Z,28.83
2022-08-14T12:43:59.595Z,29.05
2022-08-14T12:46:36.789Z,29.24
2022-08-14T12:49:17.708Z,29.31
2022-08-14T12:51:57.303Z,29.31
2022-08-14T12:54:28.700Z,29.35
2022-08-14T12:57:08.024Z,29.39
2022-08-14T12:59:42.621Z,29.33
2022-08-14T13:02:25.892Z,29.22
2022-08-14T13:04:57.043Z,29.21
2022-08-14T13:07:32.540Z,29.29
2022-08-14T13:10:33.616Z,29.39
2022-08-14T13:15:45.908Z,29.46
2022-08-14T13:18:17.691Z,29.47
2022-08-14T13:20:52.081Z,29.31
2022-08-14T13:23:32.711Z,29.25
2022-08-14T13:26:02.808Z,29.32
2022-08-14T13:28:39.690Z,29.39
2022-08-14T13:31:30.037Z,29.51
2022-08-14T13:34:00.288Z,29.47
2022-08-14T13:36:54.262Z,29.42
2022-08-14T13:39:20.593Z,29.30
2022-08-14T13:41:55.816Z,29.24
2022-08-14T13:44:27.612Z,29.14
2022-08-14T13:46:58.598Z,29.03
2022-08-14T13:49:29.144Z,29.05
2022-08-14T13:51:59.040Z,29.16
2022-08-14T13:54:31.218Z,29.29
2022-08-14T13:57:01.331Z,29.42
2022-08-14T13:59:37.217Z,29.60
2022-08-14T14:02:08.514Z,29.77
2022-08-14T14:04:49.562Z,29.93
2022-08-14T14:07:21.890Z,30.08
2022-08-14T14:09:55.231Z,30.14
2022-08-14T14:12:37.609Z,30.20
2022-08-14T14:15:15.212Z,30.20
2022-08-14T14:17:47.831Z,30.07
2022-08-14T14:20:35.327Z,29.93
2022-08-14T14:23:12.191Z,29.92
2022-08-14T14:25:51.169Z,29.98
2022-08-14T14:28:34.556Z,30.06
2022-08-14T14:31:06.680Z,30.11
2022-08-14T14:33:52.093Z,30.16
2022-08-14T14:36:25.113Z,30.24
2022-08-14T14:39:02.473Z,30.33
2022-08-14T14:41:37.561Z,30.31
2022-08-14T14:44:15.676Z,30.27
2022-08-14T14:46:50.660Z,30.18
2022-08-14T14:49:32.046Z,30.20
2022-08-14T14:52:20.785Z,30.22
2022-08-14T14:54:58.297Z,30.22
2022-08-14T14:57:35.351Z,30.24
2022-08-14T15:00:19.461Z,30.30
2022-08-14T15:02:51.551Z,30.38
2022-08-14T15:05:23.242Z,30.39
2022-08-14T15:08:05.990Z,30.34
2022-08-14T15:10:39.886Z,30.28
2022-08-14T15:13:09.208Z,30.26
2022-08-14T15:15:39.770Z,30.25
2022-08-14T15:18:36.553Z,30.22
2022-08-14T15:20:58.178Z,30.05
2022-08-14T15:23:43.737Z,29.89
2022-08-14T15:26:23.843Z,29.77
2022-08-14T15:29:05.152Z,29.67
2022-08-14T15:31:36.224Z,29.65
2022-08-14T15:34:43.762Z,29.67
2022-08-14T15:37:00.970Z,29.66
2022-08-14T15:39:35.403Z,29.62
2022-08-14T15:42:14.566Z,29.56
2022-08-14T15:44:57.540Z,29.47
2022-08-14T15:47:30.697Z,29.40
2022-08-14T15:50:02.932Z,29.36
2022-08-14T15:52:35.335Z,29.32
2022-08-14T15:55:12.895Z,29.27
2022-08-14T15:58:01.253Z,29.15
2022-08-14T16:00:51.812Z,29.04
2022-08-14T16:03:27.387Z,28.94
2022-08-14T16:06:10.728Z,28.86
2022-08-14T16:08:46.490Z,28.82
2022-08-14T16:11:20.430Z,28.80
2022-08-14T16:13:50.298Z,28.80
2022-08-14T16:16:34.861Z,28.83
2022-08-14T16:19:11.381Z,28.84
2022-08-14T16:22:01.866Z,28.83
2022-08-14T16:24:33.240Z,28.79
2022-08-14T16:27:06.191Z,28.74
2022-08-14T16:29:40.084Z,28.71
2022-08-14T16:32:32.192Z,28.72
2022-08-14T16:35:02.981Z,28.71
2022-08-14T16:37:34.366Z,28.72
2022-08-14T16:40:04.307Z,28.73
2022-08-14T16:42:39.519Z,28.77
2022-08-14T16:45:26.376Z,28.78
2022-08-14T16:47:56.438Z,28.79
2022-08-14T16:50:40.661Z,28.82
2022-08-14T16:53:17.838Z,28.82
2022-08-14T16:55:51.431Z,28.84
2022-08-14T16:58:28.954Z,28.85
2022-08-14T17:01:24.684Z,28.85
2022-08-14T17:04:04.666Z,28.85
2022-08-14T17:07:04.567Z,28.86
2022-08-14T17:09:36.532Z,28.86
2022-08-14T17:12:33.499Z,28.86
2022-08-14T17:15:15.421Z,28.88
2022-08-14T17:17:58.014Z,28.89
2022-08-14T17:20:53.161Z,28.88
2022-08-14T17:23:16.633Z,28.88
2022-08-14T17:25:49.322Z,28.85
2022-08-14T17:28:51.943Z,28.84
2022-08-14T17:31:12.411Z,28.81
2022-08-14T17:33:44.669Z,28.77
2022-08-14T17:36:24.072Z,28.74
2022-08-14T17:39:07.331Z,28.72
2022-08-14T17:45:01.028Z,28.63
2022-08-14T17:47:29.945Z,28.60
2022-08-14T17:50:04.077Z,28.55
2022-08-14T17:52:52.464Z,28.48
2022-08-14T17:56:01.428Z,28.41
2022-08-14T17:58:20.708Z,28.33
2022-08-14T18:00:57.716Z,28.28
2022-08-14T18:03:50.749Z,28.20
2022-08-14T18:06:40.011Z,28.13
2022-08-14T18:09:24.909Z,28.08
2022-08-14T18:11:57.310Z,28.02
2022-08-14T18:14:32.809Z,27.98
2022-08-14T18:17:23.155Z,27.92
2022-08-14T18:19:52.497Z,27.88
2022-08-14T18:22:32.277Z,27.84
2022-08-14T18:25:19.255Z,27.79
2022-08-14T18:27:52.306Z,27.76
2022-08-14T18:30:33.740Z,27.74
2022-08-14T18:33:20.882Z,27.70
2022-08-14T18:35:58.089Z,27.68
2022-08-14T18:38:45.653Z,27.64
2022-08-14T18:41:37.865Z,27.60
2022-08-14T18:44:10.197Z,27.57
2022-08-14T18:47:16.003Z,27.51
2022-08-14T18:50:00.769Z,27.46
2022-08-14T18:52:37.957Z,27.41
2022-08-14T18:55:20.985Z,27.36
2022-08-14T18:57:58.534Z,27.31
2022-08-14T19:00:32.237Z,27.25
2022-08-14T19:03:10.206Z,27.20
2022-08-14T19:05:47.442Z,27.19
2022-08-14T19:08:29.552Z,27.11
2022-08-14T19:11:00.561Z,27.05
2022-08-14T19:13:48.523Z,27.01
2022-08-14T19:16:26.302Z,26.96
2022-08-14T19:19:00.045Z,26.92
2022-08-14T19:21:34.357Z,26.88
2022-08-14T19:24:29.163Z,26.81
2022-08-14T19:27:23.216Z,26.76
2022-08-14T19:30:31.774Z,26.71
2022-08-14T19:33:08.741Z,26.65
2022-08-14T19:35:55.146Z,26.57
2022-08-14T19:38:47.922Z,26.49
2022-08-14T19:41:20.217Z,26.44
2022-08-14T19:43:56.945Z,26.38
2022-08-14T19:46:39.394Z,26.29
2022-08-14T19:49:23.369Z,26.22
2022-08-14T19:52:17.428Z,26.12
2022-08-14T19:54:51.185Z,26.03
2022-08-14T19:57:25.654Z,25.95
2022-08-14T20:00:28.218Z,25.87
2022-08-14T20:03:10.997Z,25.78
2022-08-14T20:05:45.607Z,25.72
2022-08-14T20:10:59.817Z,25.70
2022-08-14T20:11:17.901Z,25.67
2022-08-14T20:14:20.476Z,25.61
2022-08-14T20:16:55.725Z,25.59
2022-08-14T20:19:32.069Z,25.55
2022-08-14T20:22:36.181Z,25.49
2022-08-14T20:24:54.611Z,25.45
2022-08-14T20:27:40.064Z,25.42
2022-08-14T20:30:34.804Z,25.39
2022-08-14T20:33:10.700Z,25.37
2022-08-14T20:35:44.426Z,25.32
2022-08-14T20:38:31.753Z,25.27
2022-08-14T20:41:09.837Z,25.24
2022-08-14T20:44:00.896Z,25.20
2022-08-14T20:46:38.702Z,25.13
2022-08-14T20:49:16.832Z,25.11
2022-08-14T20:51:58.418Z,25.09
2022-08-14T20:54:33.749Z,25.06
2022-08-14T20:57:17.680Z,25.03
2022-08-14T20:59:53.400Z,25.01
2022-08-14T21:02:49.779Z,24.97
2022-08-14T21:05:34.288Z,24.95
2022-08-14T21:08:09.505Z,24.96
2022-08-14T21:10:55.016Z,24.96
2022-08-14T21:14:20.849Z,24.96
2022-08-14T21:16:33.725Z,24.98
2022-08-14T21:19:04.360Z,24.99
2022-08-14T21:21:40.550Z,24.98
2022-08-14T21:24:38.378Z,24.98
2022-08-14T21:27:12.934Z,24.99
2022-08-14T21:29:49.872Z,24.99
2022-08-14T21:32:34.642Z,24.99
2022-08-14T21:35:08.362Z,25.00
2022-08-14T21:37:45.204Z,25.00
2022-08-14T21:40:31.772Z,24.99
2022-08-14T21:43:05.047Z,24.97
2022-08-14T21:45:35.622Z,24.95
2022-08-14T21:48:10.663Z,24.92
2022-08-14T21:51:00.127Z,24.87
2022-08-14T21:53:33.909Z,24.83
2022-08-14T21:56:05.636Z,24.78
2022-08-14T21:58:52.410Z,24.72
2022-08-14T22:01:24.132Z,24.67
2022-08-14T22:03:56.313Z,24.68
2022-08-14T22:06:28.555Z,24.68
2022-08-14T22:08:59.453Z,24.72
2022-08-14T22:11:30.785Z,24.76
2022-08-14T22:14:25.133Z,24.81
2022-08-14T22:17:03.474Z,24.83
2022-08-14T22:19:47.396Z,24.84
2022-08-14T22:22:27.750Z,24.83
2022-08-14T22:25:00.332Z,24.82
2022-08-14T22:27:32.470Z,24.81
2022-08-14T22:30:04.122Z,24.80
2022-08-14T22:32:56.824Z,24.78
2022-08-14T22:35:23.472Z,24.77
2022-08-14T22:38:34.845Z,24.75
2022-08-14T22:41:12.107Z,24.73
2022-08-14T22:43:35.175Z,24.69
2022-08-14T22:46:06.142Z,24.68
2022-08-14T22:48:45.478Z,24.67
2022-08-14T22:51:16.133Z,24.65
2022-08-14T22:53:51.695Z,24.63
2022-08-14T22:56:29.489Z,24.64
2022-08-14T22:59:01.714Z,24.63
2022-08-14T23:01:55.729Z,24.65
2022-08-14T23:04:35.155Z,24.65
2022-08-14T23:07:23.118Z,24.64
2022-08-14T23:10:03.568Z,24.64
2022-08-14T23:12:54.779Z,24.61
2022-08-14T23:15:30.266Z,24.61
2022-08-14T23:17:59.788Z,24.59
2022-08-14T23:20:33.771Z,24.56
2022-08-14T23:23:22.545Z,24.51
2022-08-14T23:25:58.267Z,24.48
2022-08-14T23:28:35.043Z,24.45
2022-08-14T23:31:33.525Z,24.41
2022-08-14T23:34:07.921Z,24.39
2022-08-14T23:36:53.917Z,24.37
2022-08-14T23:39:30.164Z,24.35
2022-08-14T23:42:08.467Z,24.32
2022-08-14T23:44:38.984Z,24.29
2022-08-14T23:47:25.511Z,24.26
2022-08-14T23:50:00.678Z,24.21
2022-08-14T23:53:06.123Z,24.17
2022-08-14T23:55:26.564Z,24.11
2022-08-14T23:57:58.463Z,24.06
